Latest Weather Observations for Territory Grape Farm

IDD60801

Issued at 1:05 pm CST Sunday 26 October 2014 (issued every 30 minutes, with the page automatically refreshed every 10 minutes)

About weather observations | Map of weather stations | Latest weather observations for NT | Other Formats
Station Details ID: 015643 Name: TERRITORY GRAPE FARM Lat: -22.45 Lon: 133.64 Height: 565.6 m
Data from the previous 72 hours. | See also: Recent months at Territory Grape Farm
Date/Time
CST
Temp
°C
App
Temp
°C
Dew
Point
Rel
Hum
%
Delta-T
°C
Wind Press
QNH
hPa
Press
MSL
hPa
Rain
since 9 am
mm
Dir
 
Spd
km/h
Gust
km/h
Spd
kts
Gust
kts
26/01:00pm 37.4 32.8 -4.2 7 20.0 N 11 30 6 16 1015.8 1012.6 0.0
26/12:30pm 37.4 30.9 -2.4 8 19.7 NNE 22 32 12 17 1016.6 1013.3 0.0
26/12:00pm 37.0 30.1 -2.7 8 19.5 NNE 24 35 13 19 1016.9 1013.7 0.0
26/11:30am 36.6 30.6 -3.0 8 19.3 N 19 32 10 17 1017.3 1014.1 0.0
26/11:00am 36.4 29.1 -3.1 8 19.2 NE 26 39 14 21 1017.7 1014.5 0.0
26/10:30am 35.3 30.2 -2.3 9 18.4 NNE 15 35 8 19 1018.3 1015.1 0.0
26/10:00am 35.0 28.9 -2.6 9 18.2 ENE 20 35 11 19 1018.7 1015.5 0.0
26/09:30am 34.1 29.2 -3.2 9 17.8 N 13 22 7 12 1018.8 1015.6 0.0
26/09:00am 32.8 28.5 -1.5 11 16.7 N 11 19 6 10 1019.1 1015.9 0.0
26/08:30am 30.6 26.8 -0.9 13 15.2 N 9 15 5 8 1019.1 1015.9 0.0
26/08:00am 27.4 25.2 -1.5 15 13.6 CALM 0 4 0 2 1019.1 1015.9 0.0
26/07:30am 24.6 22.1 -1.3 18 11.9 SSW 2 2 1 1 1018.8 1015.6 0.0
26/07:00am 20.9 17.9 -1.6 22 10.0 SSW 4 4 2 2 1018.5 1015.3 0.0
26/06:30am 18.6 15.2 -2.3 24 9.0 SW 6 7 3 4 1017.9 1014.7 0.0
26/06:00am 16.8 13.3 -2.8 26 8.2 SW 6 7 3 4 1017.3 1014.1 0.0
26/05:30am 16.4 13.2 -3.7 25 8.2 SSW 4 6 2 3 1017.2 1014.0 0.0
26/05:00am 16.4 13.9 -3.7 25 8.2 CALM 0 2 0 1 1016.9 1013.7 0.0
26/04:30am 17.1 13.6 -2.5 26 8.3 ESE 6 6 3 3 1016.7 1013.5 0.0
26/04:00am 17.7 14.5 -3.1 24 8.7 ESE 4 6 2 3 1016.6 1013.3 0.0
26/03:30am 18.6 15.8 -2.9 23 9.1 E 2 2 1 1 1016.4 1013.1 0.0
26/03:00am 19.5 16.3 -3.4 21 9.7 E 4 4 2 2 1016.4 1013.1 0.0
26/02:30am 20.9 17.6 -1.6 22 10.0 E 6 7 3 4 1016.5 1013.2 0.0
26/02:00am 20.8 17.3 -1.7 22 10.0 ENE 7 9 4 5 1016.5 1013.2 0.0
26/01:30am 22.2 18.2 -2.5 19 10.9 ENE 9 9 5 5 1016.8 1013.6 0.0
26/01:00am 21.7 18.1 -2.2 20 10.6 E 7 9 4 5 1017.0 1013.8 0.0
26/12:30am 23.5 19.3 -3.7 16 11.9 ENE 9 11 5 6 1017.2 1014.0 0.0
26/12:00am 24.9 20.4 -3.5 15 12.6 ENE 11 13 6 7 1017.4 1014.2 0.0
 
Date/Time
CST
Temp
°C
App
Temp
°C
Dew
Point
Rel
Hum
%
Delta-T
°C
Wind Press
QNH
hPa
Press
MSL
hPa
Rain
since 9 am
mm
Dir
 
Spd
km/h
Gust
km/h
Spd
kts
Gust
kts
25/11:30pm 24.7 20.6 -2.8 16 12.3 ENE 9 13 5 7 1017.5 1014.3 0.0
25/11:00pm 24.0 20.3 -2.5 17 11.9 E 7 9 4 5 1017.6 1014.4 0.0
25/10:30pm 24.9 21.9 -1.8 17 12.2 ENE 4 4 2 2 1017.6 1014.4 0.0
25/10:00pm 25.8 22.3 -2.8 15 12.9 ENE 6 7 3 4 1017.6 1014.4 0.0
25/09:30pm 27.4 23.3 -3.4 13 13.9 NE 9 9 5 5 1017.5 1014.3 0.0
25/09:00pm 28.8 24.3 -3.4 12 14.7 ENE 11 13 6 7 1017.4 1014.2 0.0
25/08:30pm 29.2 24.6 -4.3 11 15.1 ENE 11 13 6 7 1017.0 1013.8 0.0
25/08:00pm 30.6 26.0 -4.4 10 16.0 ENE 11 13 6 7 1016.6 1013.3 0.0
25/07:30pm 31.1 26.5 -4.1 10 16.2 E 11 13 6 7 1016.4 1013.1 0.0
25/07:00pm 32.8 28.6 -4.2 9 17.2 ENE 9 11 5 6 1016.0 1012.8 0.0
25/06:30pm 34.9 29.1 -4.2 8 18.5 E 17 24 9 13 1015.6 1012.4 0.0
25/06:00pm 35.9 31.0 -3.5 8 19.0 E 13 20 7 11 1015.3 1012.1 0.0
25/05:30pm 36.5 31.6 -3.0 8 19.3 E 13 28 7 15 1015.0 1011.7 0.0
25/05:00pm 36.6 30.4 -3.0 8 19.3 NE 20 28 11 15 1014.9 1011.6 0.0
25/04:30pm 36.9 30.8 -2.7 8 19.4 ENE 20 41 11 22 1015.0 1011.7 0.0
25/04:00pm 37.1 31.5 -2.6 8 19.6 ESE 17 24 9 13 1015.0 1011.7 0.0
25/03:30pm 37.3 31.4 -2.4 8 19.6 E 19 33 10 18 1015.4 1012.2 0.0
25/03:00pm 36.5 32.8 -3.0 8 19.2 SE 7 13 4 7 1015.5 1012.3 0.0
25/02:30pm 37.4 33.8 -2.4 8 19.7 ENE 7 22 4 12 1016.1 1012.9 0.0
25/02:00pm 37.2 33.0 -0.9 9 19.3 E 11 22 6 12 1016.5 1013.2 0.0
25/01:30pm 36.8 32.4 0.2 10 18.8 NE 13 19 7 10 1017.0 1013.8 0.0
25/01:00pm 36.3 31.1 -0.2 10 18.6 ENE 17 24 9 13 1017.6 1014.4 0.0
25/12:30pm 36.0 30.3 -0.4 10 18.4 ENE 19 28 10 15 1018.3 1015.1 0.0
25/12:00pm 35.9 31.6 0.9 11 18.1 E 13 26 7 14 1018.8 1015.6 0.0
25/11:30am 35.6 29.7 -0.7 10 18.2 E 20 33 11 18 1019.2 1016.0 0.0
25/11:00am 35.7 31.9 1.9 12 17.7 ENE 11 30 6 16 1019.6 1016.4 0.0
25/10:30am 34.7 29.3 1.1 12 17.3 NE 19 30 10 16 1019.9 1016.8 0.0
25/10:00am 34.0 29.1 1.7 13 16.7 NNE 17 30 9 16 1020.2 1017.0 0.0
25/09:30am 33.1 28.6 2.1 14 16.0 NNE 15 22 8 12 1020.4 1017.2 0.0
25/09:00am 31.1 26.5 1.4 15 15.0 NNE 15 22 8 12 1020.5 1017.3 0.0
25/08:30am 30.3 26.1 1.7 16 14.4 NNE 13 19 7 10 1020.5 1017.3 0.0
25/08:00am 28.8 24.5 1.3 17 13.7 NE 13 22 7 12 1020.3 1017.1 0.0
25/07:30am 26.6 23.6 1.8 20 12.2 E 7 11 4 6 1020.1 1016.9 0.0
25/07:00am 22.1 19.1 1.7 26 9.8 SE 7 9 4 5 1019.7 1016.5 0.0
25/06:30am 20.3 17.1 0.7 27 9.1 SSE 7 9 4 5 1019.3 1016.1 0.0
25/06:00am 18.8 15.7 0.4 29 8.3 SE 6 7 3 4 1018.7 1015.5 0.0
25/05:30am 18.1 14.6 1.2 32 7.8 ESE 9 11 5 6 1018.4 1015.2 0.0
25/05:00am 18.5 15.4 1.1 31 8.0 ESE 7 9 4 5 1018.0 1014.8 0.0
25/04:30am 19.4 15.8 0.9 29 8.5 ESE 9 11 5 6 1017.6 1014.4 0.0
25/04:00am 18.9 15.4 1.0 30 8.2 E 9 11 5 6 1017.3 1014.1 0.0
25/03:30am 18.6 15.5 0.2 29 8.3 SE 6 7 3 4 1017.1 1013.9 0.0
25/03:00am 18.9 15.6 0.0 28 8.5 E 7 9 4 5 1016.9 1013.7 0.0
25/02:30am 19.5 15.8 0.0 27 8.8 ESE 9 9 5 5 1016.9 1013.7 0.0
25/02:00am 21.0 17.3 0.2 25 9.6 SSE 9 11 5 6 1017.0 1013.8 0.0
25/01:30am 19.9 17.8 -0.7 25 9.2 CALM 0 0 0 0 1017.1 1013.9 0.0
25/01:00am 20.0 17.5 -1.2 24 9.4 NE 2 4 1 2 1017.2 1014.0 0.0
25/12:30am 21.0 18.1 -0.9 23 9.9 ESE 4 6 2 3 1017.3 1014.1 0.0
25/12:00am 22.0 18.9 -0.1 23 10.2 E 6 7 3 4 1017.4 1014.2 0.0
 
Date/Time
CST
Temp
°C
App
Temp
°C
Dew
Point
Rel
Hum
%
Delta-T
°C
Wind Press
QNH
hPa
Press
MSL
hPa
Rain
since 9 am
mm
Dir
 
Spd
km/h
Gust
km/h
Spd
kts
Gust
kts
24/11:30pm 22.5 19.6 1.5 25 10.0 E 6 7 3 4 1017.6 1014.4 0.0
24/11:00pm 22.0 19.2 -0.7 22 10.4 ENE 4 6 2 3 1017.6 1014.4 0.0
24/10:30pm 23.0 20.2 -0.5 21 10.8 NE 4 6 2 3 1017.5 1014.3 0.0
24/10:00pm 24.3 21.2 -0.1 20 11.5 ENE 6 7 3 4 1017.6 1014.4 0.0
24/09:30pm 25.5 21.8 0.2 19 12.1 ENE 9 9 5 5 1017.4 1014.2 0.0
24/09:00pm 27.2 23.4 -0.8 16 13.3 NE 9 9 5 5 1017.3 1014.1 0.0
24/08:30pm 28.7 24.6 -0.5 15 14.1 NE 11 13 6 7 1017.0 1013.8 0.0
24/08:00pm 28.9 24.9 -2.3 13 14.6 ENE 9 11 5 6 1016.7 1013.5 0.0
24/07:30pm 30.6 26.3 -2.0 12 15.5 ENE 11 13 6 7 1016.4 1013.1 0.0
24/07:00pm 32.5 27.4 -1.7 11 16.6 ENE 15 20 8 11 1016.0 1012.8 0.0
24/06:30pm 33.8 28.3 -2.0 10 17.4 ENE 17 26 9 14 1015.6 1012.4 0.0
24/06:00pm 34.7 28.3 -1.4 10 17.8 E 22 33 12 18 1015.3 1012.1 0.0
24/05:30pm 35.6 30.3 -0.7 10 18.2 E 17 26 9 14 1015.0 1011.7 0.0
24/05:00pm 35.7 29.8 -0.6 10 18.3 ENE 20 32 11 17 1014.8 1011.5 0.0
24/04:30pm 35.8 30.5 -0.5 10 18.3 ENE 17 26 9 14 1014.8 1011.5 0.0
24/04:00pm 36.3 33.0 -0.2 10 18.6 ESE 7 9 4 5 1014.9 1011.6 0.0
24/03:30pm 36.7 32.3 0.1 10 18.8 ESE 13 20 7 11 1015.3 1012.1 0.0
24/03:00pm 36.1 32.4 -0.3 10 18.5 ESE 9 17 5 9 1015.5 1012.3 0.0
24/02:30pm 35.9 32.0 0.9 11 18.1 NNE 11 19 6 10 1015.7 1012.5 0.0
24/02:00pm 36.4 32.5 1.2 11 18.3 NNE 11 26 6 14 1016.3 1013.0 0.0
24/01:30pm 34.7 31.0 -0.1 11 17.6 NNE 9 20 5 11 1016.7 1013.5 0.0
24/01:00pm 33.8 28.7 0.5 12 16.9 NNE 17 26 9 14 1017.2 1014.0 0.0
24/12:30pm 34.2 28.0 -0.4 11 17.3 NE 22 28 12 15 1017.7 1014.5 0.0
24/12:00pm 35.5 30.8 0.6 11 17.9 NNE 15 24 8 13 1018.0 1014.8 0.0
24/11:30am 34.0 28.9 0.6 12 17.0 NNE 17 26 9 14 1018.3 1015.1 0.0
24/11:00am 33.6 28.8 2.4 14 16.3 N 17 26 9 14 1018.7 1015.5 0.0
24/10:30am 33.5 29.2 3.3 15 16.0 N 15 28 8 15 1019.2 1016.0 0.0
24/10:00am 32.0 27.3 3.1 16 15.1 NNE 17 24 9 13 1019.3 1016.1 0.0
24/09:30am 32.5 27.5 3.5 16 15.3 N 19 28 10 15 1019.3 1016.1 0.0
24/09:00am 31.3 26.6 3.4 17 14.6 NNE 17 22 9 12 1019.3 1016.1 0.0
24/08:30am 29.6 26.0 2.8 18 13.7 N 11 15 6 8 1019.3 1016.1 0.0
24/08:00am 28.2 25.5 2.4 19 13.0 NNE 6 13 3 7 1019.1 1015.9 0.0
24/07:30am 24.4 21.8 0.7 21 11.3 SSE 4 4 2 2 1018.9 1015.7 0.0
24/07:00am 21.6 18.7 -1.0 22 10.2 SE 4 6 2 3 1018.6 1015.4 0.0
24/06:30am 18.7 15.1 -2.3 24 9.0 ESE 7 9 4 5 1018.4 1015.2 0.0
24/06:00am 17.7 13.5 -3.7 23 8.8 SE 9 9 5 5 1018.0 1014.8 0.0
24/05:30am 17.3 14.0 -4.0 23 8.7 SSE 4 6 2 3 1017.6 1014.4 0.0
24/05:00am 18.6 15.1 -2.9 23 9.1 SSE 6 7 3 4 1017.3 1014.1 0.0
24/04:30am 18.0 14.4 -3.4 23 8.9 S 6 7 3 4 1017.1 1013.9 0.0
24/04:00am 18.9 15.3 -3.3 22 9.4 SSE 6 7 3 4 1016.7 1013.5 0.0
24/03:30am 20.1 16.3 -3.5 20 10.0 SSE 7 9 4 5 1016.5 1013.2 0.0
24/03:00am 19.1 15.6 -2.5 23 9.3 SSE 6 7 3 4 1016.5 1013.2 0.0
24/02:30am 19.1 16.1 -1.9 24 9.1 S 4 4 2 2 1016.5 1013.2 0.0
24/02:00am 19.3 16.9 -3.5 21 9.6 CALM 0 0 0 0 1016.6 1013.3 0.0
24/01:30am 19.9 17.4 -3.7 20 10.0 CALM 0 0 0 0 1016.7 1013.5 0.0
24/01:00am 20.4 17.1 -4.0 19 10.3 NE 4 4 2 2 1016.8 1013.6 0.0
24/12:30am 21.9 18.2 -5.0 16 11.3 ENE 6 7 3 4 1017.1 1013.9 0.0
24/12:00am 23.0 19.1 -5.0 15 11.9 ENE 7 9 4 5 1017.3 1014.1 0.0
 
Date/Time
CST
Temp
°C
App
Temp
°C
Dew
Point
Rel
Hum
%
Delta-T
°C
Wind Press
QNH
hPa
Press
MSL
hPa
Rain
since 9 am
mm
Dir
 
Spd
km/h
Gust
km/h
Spd
kts
Gust
kts
23/11:30pm 23.9 19.7 -4.3 15 12.2 NE 9 11 5 6 1017.4 1014.2 0.0
23/11:00pm 23.9 19.6 -5.2 14 12.4 ENE 9 11 5 6 1017.7 1014.5 0.0
23/10:30pm 24.8 20.1 -5.5 13 12.9 ENE 11 13 6 7 1017.7 1014.5 0.0
23/10:00pm 25.1 20.3 -6.3 12 13.2 ENE 11 11 6 6 1017.7 1014.5 0.0
23/09:30pm 25.8 21.0 -5.7 12 13.5 ENE 11 13 6 7 1017.4 1014.2 0.0
23/09:00pm 26.1 21.6 -6.6 11 13.8 ENE 9 11 5 6 1017.1 1013.9 0.0
23/08:30pm 27.3 22.8 -6.9 10 14.5 ENE 9 9 5 5 1016.8 1013.6 0.0
23/08:00pm 28.1 23.7 -6.3 10 14.9 ENE 9 9 5 5 1016.5 1013.2 0.0
23/07:30pm 29.2 24.7 -6.9 9 15.6 ENE 9 11 5 6 1016.1 1012.9 0.0
23/07:00pm 31.0 26.5 -7.1 8 16.7 ENE 9 11 5 6 1015.8 1012.6 0.0
23/06:30pm 33.4 27.9 -5.3 8 17.8 E 15 22 8 12 1015.4 1012.2 0.0
23/06:00pm 34.0 28.9 -4.9 8 18.1 E 13 20 7 11 1015.1 1011.9 0.0
23/05:30pm 34.9 27.4 -4.2 8 18.5 E 26 33 14 18 1014.8 1011.5 0.0
23/05:00pm 35.3 30.3 -3.9 8 18.7 ENE 13 20 7 11 1014.7 1011.4 0.0
23/04:30pm 36.4 30.8 -3.1 8 19.2 ESE 17 22 9 12 1014.6 1011.3 0.0
23/04:00pm 36.0 30.0 -3.4 8 19.0 E 19 37 10 20 1014.8 1011.5 0.0
23/03:30pm 36.1 30.7 -1.7 9 18.8 E 17 44 9 24 1014.8 1011.5 0.0
23/03:00pm 35.3 30.9 -2.3 9 18.4 E 11 17 6 9 1015.0 1011.7 0.0
23/02:30pm 36.0 29.2 -1.8 9 18.7 ENE 24 37 13 20 1015.3 1012.1 0.0
23/02:00pm 35.8 31.5 -2.0 9 18.6 E 11 20 6 11 1015.7 1012.5 0.0
23/01:30pm 36.3 29.5 -1.6 9 18.9 NNE 24 35 13 19 1016.3 1013.0 0.0

Other Formats:

Comma delimited format used in spreadsheet applications
http://www.bom.gov.au/fwo/IDD60801/IDD60801.94328.axf

JavaScript Object Notation format (JSON) in row-major order
http://www.bom.gov.au/fwo/IDD60801/IDD60801.94328.json